createdAt,value
2023-01-01T00:01:40.786Z,13.07
2023-01-01T00:06:47.094Z,13.16
2023-01-01T00:11:49.854Z,13.21
2023-01-01T00:16:55.493Z,13.22
2023-01-01T00:22:02.063Z,13.22
2023-01-01T00:27:08.490Z,13.20
2023-01-01T00:32:15.430Z,13.14
2023-01-01T00:37:21.923Z,13.12
2023-01-01T00:42:24.705Z,13.11
2023-01-01T00:47:27.446Z,13.09
2023-01-01T00:52:30.167Z,13.06
2023-01-01T00:57:32.991Z,13.02
2023-01-01T01:02:36.267Z,12.99
2023-01-01T01:07:40.021Z,12.96
2023-01-01T01:12:42.977Z,12.94
2023-01-01T01:17:45.868Z,12.94
2023-01-01T01:22:48.657Z,12.95
2023-01-01T01:27:51.374Z,12.97
2023-01-01T01:32:54.214Z,13.00
2023-01-01T01:37:56.987Z,13.02
2023-01-01T01:42:59.698Z,13.04
2023-01-01T01:48:02.651Z,13.04
2023-01-01T01:53:11.040Z,13.03
2023-01-01T01:58:16.170Z,13.05
2023-01-01T02:03:30.005Z,13.06
2023-01-01T02:08:34.089Z,13.06
2023-01-01T02:13:37.379Z,13.05
2023-01-01T02:18:49.114Z,13.02
2023-01-01T02:24:10.425Z,13.02
2023-01-01T02:29:40.479Z,13.01
2023-01-01T02:35:32.454Z,12.98
2023-01-01T02:40:43.050Z,12.98
2023-01-01T02:45:46.039Z,12.97
2023-01-01T02:50:48.866Z,12.95
2023-01-01T02:55:54.310Z,12.89
2023-01-01T03:01:11.103Z,12.84
2023-01-01T03:06:32.220Z,12.82
2023-01-01T03:11:51.282Z,12.79
2023-01-01T03:17:08.766Z,12.78
2023-01-01T03:22:17.307Z,12.79
2023-01-01T03:27:35.225Z,12.80
2023-01-01T03:33:01.390Z,12.80
2023-01-01T03:38:08.962Z,12.80
2023-01-01T03:43:28.013Z,12.78
2023-01-01T03:48:50.773Z,12.74
2023-01-01T03:53:58.008Z,12.70
2023-01-01T03:59:26.105Z,12.69
2023-01-01T04:04:29.110Z,12.67
2023-01-01T04:09:36.087Z,12.67
2023-01-01T04:14:42.742Z,12.66
2023-01-01T04:19:50.054Z,12.64
2023-01-01T04:24:56.042Z,12.63
2023-01-01T04:29:58.811Z,12.60
2023-01-01T04:35:01.580Z,12.59
2023-01-01T04:40:05.719Z,12.57
2023-01-01T04:45:09.232Z,12.51
2023-01-01T04:50:12.016Z,12.46
2023-01-01T04:55:14.823Z,12.40
2023-01-01T05:00:17.800Z,12.33
2023-01-01T05:05:20.779Z,12.24
2023-01-01T05:10:23.528Z,12.15
2023-01-01T05:15:26.241Z,12.09
2023-01-01T05:20:28.952Z,12.04
2023-01-01T05:25:31.689Z,11.98
2023-01-01T05:30:34.419Z,11.90
2023-01-01T05:35:37.151Z,11.83
2023-01-01T05:40:40.308Z,11.75
2023-01-01T05:45:44.285Z,11.71
2023-01-01T05:50:47.060Z,11.68
2023-01-01T05:55:54.064Z,11.62
2023-01-01T06:00:57.221Z,11.57
2023-01-01T06:06:04.660Z,11.54
2023-01-01T06:11:11.438Z,11.49
2023-01-01T06:16:14.262Z,11.45
2023-01-01T06:21:19.748Z,11.43
2023-01-01T06:26:31.537Z,11.44
2023-01-01T06:31:40.365Z,11.47
2023-01-01T06:36:43.547Z,11.54
2023-01-01T06:41:46.298Z,11.61
2023-01-01T06:46:49.050Z,11.71
2023-01-01T06:51:51.792Z,11.80
2023-01-01T06:56:54.511Z,11.87
2023-01-01T07:01:57.314Z,11.93
2023-01-01T07:07:01.466Z,11.94
2023-01-01T07:12:04.423Z,11.92
2023-01-01T07:17:07.149Z,11.90
2023-01-01T07:22:11.005Z,11.92
2023-01-01T07:27:13.757Z,11.96
2023-01-01T07:32:16.475Z,12.06
2023-01-01T07:37:20.636Z,12.22
2023-01-01T07:42:23.411Z,12.37
2023-01-01T07:47:26.561Z,12.50
2023-01-01T07:52:29.274Z,12.62
2023-01-01T07:57:32.011Z,12.71
2023-01-01T08:02:34.976Z,12.83
2023-01-01T08:07:38.485Z,12.96
2023-01-01T08:12:41.792Z,13.14
2023-01-01T08:17:47.151Z,13.20
2023-01-01T08:22:50.227Z,13.24
2023-01-01T08:27:53.000Z,13.28
2023-01-01T08:32:55.786Z,13.33
2023-01-01T08:37:58.750Z,13.39
2023-01-01T08:43:01.496Z,13.42
2023-01-01T08:48:04.547Z,13.53
2023-01-01T08:53:07.337Z,13.73
2023-01-01T08:58:10.060Z,13.92
2023-01-01T09:03:12.903Z,14.14
2023-01-01T09:08:16.557Z,14.42
2023-01-01T09:13:22.126Z,14.59
2023-01-01T09:18:24.878Z,14.58
2023-01-01T09:23:27.677Z,14.50
2023-01-01T09:28:31.041Z,14.42
2023-01-01T09:33:34.612Z,14.35
2023-01-01T09:38:37.365Z,14.32
2023-01-01T09:44:18.772Z,14.30
2023-01-01T09:49:35.591Z,14.28
2023-01-01T09:54:43.828Z,14.31
2023-01-01T09:59:46.762Z,14.34
2023-01-01T10:05:26.847Z,14.38
2023-01-01T10:10:40.949Z,14.44
2023-01-01T10:15:57.117Z,14.51
2023-01-01T10:21:12.623Z,14.58
2023-01-01T10:26:18.762Z,14.60
2023-01-01T10:31:34.698Z,14.59
2023-01-01T10:36:37.956Z,14.60
2023-01-01T10:41:40.693Z,14.63
2023-01-01T10:46:48.826Z,14.69
2023-01-01T10:51:54.119Z,14.77
2023-01-01T10:56:56.950Z,14.87
2023-01-01T11:02:21.781Z,14.96
2023-01-01T11:07:30.474Z,15.06
2023-01-01T11:13:04.386Z,15.14
2023-01-01T11:18:14.986Z,15.17
2023-01-01T11:23:39.561Z,15.17
2023-01-01T11:28:42.574Z,15.17
2023-01-01T11:33:50.949Z,15.17
2023-01-01T11:39:18.175Z,15.17
2023-01-01T11:44:40.041Z,15.15
2023-01-01T11:49:43.139Z,15.10
2023-01-01T11:54:47.573Z,15.04
2023-01-01T12:00:01.201Z,14.97
2023-01-01T12:05:42.546Z,14.89
2023-01-01T12:10:58.358Z,14.83
2023-01-01T12:16:27.117Z,14.80
2023-01-01T12:21:32.762Z,14.75
2023-01-01T12:26:47.419Z,14.67
2023-01-01T12:32:24.094Z,14.61
2023-01-01T12:37:38.715Z,14.54
2023-01-01T12:43:01.114Z,14.46
2023-01-01T12:48:43.315Z,14.40
2023-01-01T12:54:04.316Z,14.34
2023-01-01T12:59:32.261Z,14.27
2023-01-01T13:04:36.690Z,14.20
2023-01-01T13:09:45.304Z,14.15
2023-01-01T13:14:52.699Z,14.09
2023-01-01T13:20:15.098Z,14.04
2023-01-01T13:25:19.238Z,13.97
2023-01-01T13:30:38.268Z,13.91
2023-01-01T13:35:41.583Z,13.85
2023-01-01T13:40:51.491Z,13.81
2023-01-01T13:46:13.851Z,13.77
2023-01-01T13:52:05.246Z,13.74
2023-01-01T13:57:20.631Z,13.69
2023-01-01T14:02:31.324Z,13.63
2023-01-01T14:07:51.260Z,13.57
2023-01-01T14:13:16.466Z,13.52
2023-01-01T14:18:22.149Z,13.47
2023-01-01T14:23:41.600Z,13.41
2023-01-01T14:28:45.039Z,13.32
2023-01-01T14:33:48.571Z,13.25
2023-01-01T14:38:56.862Z,13.22
2023-01-01T14:44:24.727Z,13.19
2023-01-01T14:49:45.481Z,13.10
2023-01-01T14:54:48.673Z,13.05
2023-01-01T14:59:56.626Z,13.01
2023-01-01T15:05:27.687Z,12.95
2023-01-01T15:10:36.384Z,12.92
2023-01-01T15:15:45.300Z,12.88
2023-01-01T15:20:54.057Z,12.80
2023-01-01T15:25:56.894Z,12.70
2023-01-01T15:31:00.020Z,12.58
2023-01-01T15:36:04.064Z,12.48
2023-01-01T15:41:40.731Z,12.42
2023-01-01T15:46:49.216Z,12.33
2023-01-01T15:51:55.514Z,12.24
2023-01-01T15:56:58.414Z,12.19
2023-01-01T16:02:13.582Z,12.16
2023-01-01T16:07:23.505Z,12.13
2023-01-01T16:12:26.403Z,12.06
2023-01-01T16:17:29.209Z,11.97
2023-01-01T16:22:36.569Z,11.89
2023-01-01T16:27:39.855Z,11.80
2023-01-01T16:32:42.694Z,11.73
2023-01-01T16:37:45.479Z,11.65
2023-01-01T16:42:48.278Z,11.56
2023-01-01T16:47:51.316Z,11.50
2023-01-01T16:52:54.109Z,11.45
2023-01-01T16:58:21.209Z,11.39
2023-01-01T17:03:19.698Z,11.31
2023-01-01T17:08:23.001Z,11.25
2023-01-01T17:13:25.811Z,11.21
2023-01-01T17:18:55.135Z,11.16
2023-01-01T17:23:51.793Z,11.10
2023-01-01T17:29:00.288Z,11.05
2023-01-01T17:34:04.229Z,11.00
2023-01-01T17:39:07.363Z,10.93
2023-01-01T17:44:11.707Z,10.86
2023-01-01T17:49:14.639Z,10.82
2023-01-01T17:54:17.473Z,10.79
2023-01-01T17:59:20.291Z,10.75
2023-01-01T18:04:23.065Z,10.70
2023-01-01T18:09:25.925Z,10.69
2023-01-01T18:14:28.763Z,10.65
2023-01-01T18:19:32.467Z,10.60
2023-01-01T18:24:35.832Z,10.52
2023-01-01T18:29:38.621Z,10.47
2023-01-01T18:34:41.405Z,10.44
2023-01-01T18:39:44.259Z,10.40
2023-01-01T18:44:47.004Z,10.35
2023-01-01T18:50:02.182Z,10.32
2023-01-01T18:55:04.933Z,10.27
2023-01-01T19:00:22.921Z,10.22
2023-01-01T19:05:27.566Z,10.16
2023-01-01T19:10:44.540Z,10.12
2023-01-01T19:15:53.314Z,10.08
2023-01-01T19:21:21.560Z,10.05
2023-01-01T19:26:25.739Z,10.03
2023-01-01T19:31:28.899Z,10.04
2023-01-01T19:36:31.780Z,10.03
2023-01-01T19:41:36.332Z,9.97
2023-01-01T19:46:39.359Z,9.92
2023-01-01T19:51:42.345Z,9.92
2023-01-01T19:56:46.673Z,9.94
2023-01-01T20:02:03.534Z,9.98
2023-01-01T20:07:12.307Z,10.03
2023-01-01T20:12:15.035Z,10.10
2023-01-01T20:17:18.461Z,10.17
2023-01-01T20:22:22.154Z,10.20
2023-01-01T20:27:27.257Z,10.19
2023-01-01T20:32:30.119Z,10.18
2023-01-01T20:37:39.101Z,10.19
2023-01-01T20:42:43.693Z,10.21
2023-01-01T20:47:46.532Z,10.23
2023-01-01T20:52:49.338Z,10.27
2023-01-01T20:57:52.225Z,10.32
2023-01-01T21:02:55.243Z,10.34
2023-01-01T21:07:59.489Z,10.35
2023-01-01T21:13:02.438Z,10.37
2023-01-01T21:18:05.807Z,10.36
2023-01-01T21:23:29.348Z,10.34
2023-01-01T21:28:33.829Z,10.31
2023-01-01T21:33:36.702Z,10.31
2023-01-01T21:38:39.825Z,10.28
2023-01-01T21:43:45.640Z,10.22
2023-01-01T21:49:02.953Z,10.09
2023-01-01T21:54:14.922Z,9.95
2023-01-01T21:59:35.567Z,9.87
2023-01-01T22:04:45.671Z,9.77
2023-01-01T22:09:57.559Z,9.69
2023-01-01T22:15:28.674Z,9.63
2023-01-01T22:20:34.805Z,9.58
2023-01-01T22:25:38.005Z,9.53
2023-01-01T22:30:42.750Z,9.47
2023-01-01T22:35:45.903Z,9.42
2023-01-01T22:40:50.669Z,9.39
2023-01-01T22:45:54.104Z,9.34
2023-01-01T22:51:02.191Z,9.26
2023-01-01T22:56:05.328Z,9.22
2023-01-01T23:01:08.100Z,9.22
2023-01-01T23:06:11.088Z,9.25
2023-01-01T23:11:13.897Z,9.28
2023-01-01T23:16:16.656Z,9.32
2023-01-01T23:21:26.762Z,9.39
2023-01-01T23:26:30.931Z,9.44
2023-01-01T23:31:34.905Z,9.47
2023-01-01T23:36:39.511Z,9.48
2023-01-01T23:41:42.357Z,9.47
2023-01-01T23:46:45.628Z,9.39
2023-01-01T23:51:48.498Z,9.27
2023-01-01T23:56:51.392Z,9.12
